Time;durP1;ratioP1;P1;durP2;ratioP2;P2;SDS_P1;SDS_P2;PMS_P1;PMS_P2;Temp;Humidity;BMP_temperature;BMP_pressure;BME280_temperature;BME280_humidity;BME280_pressure;Samples;Min_cycle;Max_cycle;Signal;HPM_P1;HPM_P2
2020/12/17 00:01:29;;;;;;;17.87;9.73;;;;;;;19.01;55.14;101157.06;5030709;28;20033;-61
2020/12/17 00:03:55;;;;;;;16.47;9.80;;;;;;;18.31;57.91;101164.38;5031502;28;20049;-61
2020/12/17 00:06:21;;;;;;;15.02;10.27;;;;;;;18.83;56.20;101157.25;5030776;28;20481;-61
2020/12/17 00:08:46;;;;;;;16.70;9.90;;;;;;;18.36;57.98;101167.19;5031385;28;20116;-61
2020/12/17 00:11:12;;;;;;;14.93;9.10;;;;;;;18.45;58.19;101167.63;5031321;28;20478;-61
2020/12/17 00:13:37;;;;;;;19.50;10.40;;;;;;;18.79;56.43;101165.03;5030669;28;20065;-61
2020/12/17 00:16:03;;;;;;;16.80;10.33;;;;;;;18.92;55.07;101166.63;5031329;28;20033;-61
2020/12/17 00:18:29;;;;;;;16.67;10.77;;;;;;;18.25;59.04;101165.34;5029437;28;20147;-61
2020/12/17 00:20:54;;;;;;;15.30;9.67;;;;;;;18.57;57.19;101179.28;5031283;28;20117;-61
2020/12/17 00:23:20;;;;;;;13.07;8.60;;;;;;;18.64;57.48;101168.28;5030491;28;20037;-61
2020/12/17 00:25:45;;;;;;;20.53;10.50;;;;;;;18.62;57.63;101170.41;5029239;28;20038;-61
2020/12/17 00:28:11;;;;;;;15.20;9.03;;;;;;;18.78;57.08;101175.06;5024891;28;20132;-61
2020/12/17 00:30:36;;;;;;;17.17;9.47;;;;;;;18.63;57.53;101169.34;5025982;28;20038;-63
2020/12/17 00:33:02;;;;;;;20.30;10.20;;;;;;;17.97;60.96;101164.16;5011773;28;20389;-61
2020/12/17 00:35:27;;;;;;;16.33;9.67;;;;;;;17.91;61.33;101153.25;5010512;28;20030;-61
2020/12/17 00:37:53;;;;;;;15.73;8.73;;;;;;;18.13;60.72;101158.06;5020666;28;20064;-61
2020/12/17 00:40:18;;;;;;;19.23;10.57;;;;;;;18.32;59.21;101161.44;5030996;28;20083;-61
2020/12/17 00:42:46;;;;;;;17.13;10.13;;;;;;;17.75;62.83;101162.91;5030207;28;20033;-62
2020/12/17 00:45:12;;;;;;;15.35;9.05;;;;;;;17.91;62.48;101158.66;5029515;28;20061;-60
2020/12/17 00:47:38;;;;;;;;;;;;;;;17.46;64.64;101159.25;5010871;28;20042;-61
2020/12/17 00:50:06;;;;;;;15.97;10.03;;;;;;;17.75;63.22;101167.47;5010884;28;19928;-63
2020/12/17 00:52:37;;;;;;;14.97;9.40;;;;;;;18.75;57.59;101156.56;5010230;28;20033;-60
2020/12/17 00:55:07;;;;;;;14.05;9.32;;;;;;;18.29;59.23;101152.97;5010877;28;20275;-62
2020/12/17 00:57:33;;;;;;;17.27;9.93;;;;;;;18.85;56.46;101152.41;5025462;28;20042;-61
2020/12/17 00:59:59;;;;;;;14.30;9.38;;;;;;;18.99;56.13;101156.50;5010795;28;20536;-60
2020/12/17 01:02:24;;;;;;;15.65;8.80;;;;;;;18.71;56.15;101158.13;5010028;28;20046;-61
2020/12/17 01:04:50;;;;;;;15.02;8.68;;;;;;;18.46;58.14;101153.88;5016405;28;20113;-61
2020/12/17 01:07:17;;;;;;;14.20;8.43;;;;;;;18.02;61.08;101157.03;5029262;28;20041;-60
2020/12/17 01:09:42;;;;;;;;;;;;;;;18.44;58.22;101147.03;5033922;28;20038;-61
2020/12/17 01:12:08;;;;;;;20.97;9.77;;;;;;;18.79;56.50;101132.50;5034262;28;20299;-61
2020/12/17 01:14:34;;;;;;;20.42;9.95;;;;;;;18.52;57.77;101159.38;5033333;28;20113;-61
2020/12/17 01:17:01;;;;;;;14.70;8.48;;;;;;;18.33;58.60;101154.94;5032367;28;20033;-60
2020/12/17 01:19:28;;;;;;;13.43;8.70;;;;;;;18.37;58.38;101158.00;5012649;28;20200;-60
2020/12/17 01:21:53;;;;;;;17.83;8.63;;;;;;;18.66;57.30;101147.19;5014000;28;20758;-61
2020/12/17 01:24:19;;;;;;;13.35;8.00;;;;;;;18.81;56.31;101154.78;5014206;28;20038;-64
2020/12/17 01:26:45;;;;;;;15.50;9.15;;;;;;;18.88;56.24;101152.75;5013522;28;20124;-61
2020/12/17 01:29:10;;;;;;;15.98;8.93;;;;;;;18.88;55.93;101141.06;5013987;28;20034;-61
2020/12/17 01:31:36;;;;;;;14.07;8.80;;;;;;;19.01;55.25;101139.97;5028899;28;20049;-62
2020/12/17 01:34:01;;;;;;;13.23;8.67;;;;;;;19.12;54.47;101138.25;5014200;28;20377;-61
2020/12/17 01:36:27;;;;;;;13.87;8.40;;;;;;;18.87;55.38;101139.44;5013603;28;20034;-61
2020/12/17 01:38:52;;;;;;;13.17;8.67;;;;;;;18.96;55.50;101137.97;5013012;28;20084;-63
2020/12/17 01:41:18;;;;;;;19.13;8.77;;;;;;;18.86;55.34;101140.50;5014093;28;20057;-61
2020/12/17 01:43:46;;;;;;;12.67;8.30;;;;;;;18.97;55.29;101153.16;5013133;28;20072;-61
2020/12/17 01:46:14;;;;;;;13.93;8.55;;;;;;;19.32;53.08;101141.28;5014257;28;20347;-61
2020/12/17 01:48:40;;;;;;;17.17;8.88;;;;;;;19.01;55.19;101151.66;5013325;28;20107;-61
2020/12/17 01:51:07;;;;;;;12.77;8.63;;;;;;;19.56;51.99;101135.69;5013314;28;20129;-61
2020/12/17 01:53:38;;;;;;;14.95;8.15;;;;;;;18.88;55.37;101147.31;5012946;28;20117;-61
2020/12/17 01:56:08;;;;;;;17.00;8.73;;;;;;;19.23;54.47;101159.06;5013702;28;20196;-62
2020/12/17 01:58:40;;;;;;;14.70;8.27;;;;;;;19.37;54.73;101142.44;5013092;28;20060;-60
2020/12/17 02:01:07;;;;;;;13.77;7.93;;;;;;;19.30;54.78;101150.75;5013413;28;20268;-61
2020/12/17 02:03:33;;;;;;;14.20;8.07;;;;;;;18.42;58.42;101143.75;5028237;28;20274;-61
2020/12/17 02:06:01;;;;;;;14.68;8.13;;;;;;;18.84;57.99;101134.50;5013803;28;20061;-62
2020/12/17 02:08:36;;;;;;;13.53;8.33;;;;;;;18.86;57.28;101135.06;5028640;28;20124;-54
2020/12/17 02:11:02;;;;;;;14.38;8.00;;;;;;;19.10;56.98;101132.25;5013693;28;20038;-61
2020/12/17 02:13:33;;;;;;;13.23;8.80;;;;;;;18.68;58.50;101153.19;5011732;28;20036;-56
2020/12/17 02:16:03;;;;;;;14.07;8.55;;;;;;;18.53;59.95;101144.78;5028587;28;20073;-61
2020/12/17 02:18:29;;;;;;;13.93;8.40;;;;;;;17.69;63.80;101136.81;5027908;28;20041;-57
2020/12/17 02:20:54;;;;;;;12.77;7.83;;;;;;;18.06;63.10;101154.69;5013296;28;20046;-61
2020/12/17 02:23:22;;;;;;;12.85;8.25;;;;;;;18.59;59.57;101135.69;5028356;28;20385;-61
2020/12/17 02:25:49;;;;;;;12.88;8.25;;;;;;;18.61;59.51;101153.34;5012283;28;20042;-61
2020/12/17 02:28:15;;;;;;;;;;;;;;;18.69;59.20;101151.31;5013247;28;20064;-60
2020/12/17 02:30:41;;;;;;;13.73;7.40;;;;;;;18.54;60.35;101157.25;5012488;28;20284;-60
2020/12/17 02:33:06;;;;;;;14.18;8.13;;;;;;;18.36;61.37;101158.25;5028512;28;20052;-61
2020/12/17 02:35:32;;;;;;;15.50;7.77;;;;;;;18.28;61.02;101156.75;5011226;28;20049;-60
2020/12/17 02:37:57;;;;;;;12.47;7.77;;;;;;;18.55;60.41;101154.28;5028209;28;20054;-60
2020/12/17 02:40:23;;;;;;;13.83;7.90;;;;;;;18.01;63.16;101139.16;5012680;28;20080;-60
2020/12/17 02:42:48;;;;;;;13.37;7.37;;;;;;;18.39;60.82;101145.03;5012112;28;20080;-61
2020/12/17 02:45:13;;;;;;;13.53;8.17;;;;;;;18.60;59.19;101130.03;5011504;28;20473;-62
2020/12/17 02:47:39;;;;;;;16.03;8.30;;;;;;;18.43;59.82;101140.78;5012215;28;20355;-60
2020/12/17 02:50:05;;;;;;;16.23;7.53;;;;;;;17.71;64.50;101140.09;5012722;28;20049;-61
2020/12/17 02:52:30;;;;;;;16.52;7.60;;;;;;;17.94;64.15;101143.84;5012705;28;20128;-61
2020/12/17 02:54:56;;;;;;;12.93;7.10;;;;;;;17.63;64.91;101133.16;5027535;28;20153;-60
2020/12/17 02:57:22;;;;;;;15.07;8.00;;;;;;;18.45;61.04;101137.84;5012350;28;20044;-60
2020/12/17 02:59:47;;;;;;;21.03;7.93;;;;;;;18.54;59.87;101135.59;5026941;28;20076;-61
2020/12/17 03:02:13;;;;;;;14.03;7.87;;;;;;;18.16;61.63;101127.00;5027649;28;20034;-60
2020/12/17 03:04:38;;;;;;;16.60;8.77;;;;;;;18.40;61.05;101138.56;5011946;28;20042;-61
2020/12/17 03:07:03;;;;;;;11.97;7.77;;;;;;;18.04;63.02;101144.06;5012152;28;20448;-61
2020/12/17 03:09:29;;;;;;;15.43;7.70;;;;;;;18.88;58.40;101146.50;5012549;28;20491;-62
2020/12/17 03:11:54;;;;;;;18.57;9.03;;;;;;;18.89;58.50;101148.97;5012109;28;20038;-61
2020/12/17 03:14:20;;;;;;;16.57;8.27;;;;;;;19.29;56.47;101151.84;5012051;28;20120;-60
2020/12/17 03:16:45;;;;;;;16.27;8.27;;;;;;;18.41;61.01;101142.91;5026999;28;20363;-60
2020/12/17 03:19:11;;;;;;;14.63;7.87;;;;;;;18.46;61.81;101151.16;5012676;28;20116;-60
2020/12/17 03:21:36;;;;;;;18.40;8.73;;;;;;;19.12;59.11;101147.22;5027537;28;20042;-60
2020/12/17 03:24:02;;;;;;;16.33;8.43;;;;;;;19.61;55.89;101143.09;5012581;28;20488;-60
2020/12/17 03:26:27;;;;;;;18.70;8.45;;;;;;;19.32;56.95;101130.44;5012131;28;20041;-60
2020/12/17 03:28:53;;;;;;;18.50;8.93;;;;;;;19.38;59.42;101130.56;5011243;28;20037;-61
2020/12/17 03:31:18;;;;;;;19.33;7.47;;;;;;;19.06;59.47;101131.94;5026830;28;20117;-61
2020/12/17 03:33:44;;;;;;;15.27;7.67;;;;;;;19.31;58.39;101133.44;5011560;28;20060;-60
2020/12/17 03:36:09;;;;;;;15.50;8.67;;;;;;;19.01;60.40;101135.38;5027143;28;20056;-61
2020/12/17 03:38:35;;;;;;;14.37;8.43;;;;;;;19.00;59.54;101122.06;5011981;28;20393;-56
2020/12/17 03:41:01;;;;;;;16.65;8.27;;;;;;;19.66;56.15;101129.59;5026984;28;20136;-62
2020/12/17 03:43:26;;;;;;;13.13;7.80;;;;;;;19.09;59.31;101134.16;5011557;28;20033;-61
2020/12/17 03:45:52;;;;;;;13.27;7.97;;;;;;;19.03;59.08;101133.25;5011506;28;20034;-62
2020/12/17 03:48:17;;;;;;;17.77;8.83;;;;;;;19.36;57.72;101125.38;5011975;28;20049;-61
2020/12/17 03:50:43;;;;;;;17.73;8.67;;;;;;;19.56;57.38;101134.88;5011041;28;20042;-60
2020/12/17 03:53:08;;;;;;;13.47;8.27;;;;;;;18.69;60.95;101138.59;5026977;28;20604;-61
2020/12/17 03:55:33;;;;;;;13.37;7.73;;;;;;;18.26;63.84;101131.81;5011778;28;20025;-61
2020/12/17 03:57:59;;;;;;;16.63;9.03;;;;;;;18.39;65.54;101134.22;5010857;28;20041;-61
2020/12/17 04:00:25;;;;;;;13.23;8.23;;;;;;;18.80;63.33;101133.34;5027016;28;20057;-60
2020/12/17 04:02:50;;;;;;;16.65;8.80;;;;;;;18.45;64.83;101144.09;5011301;28;20066;-60
2020/12/17 04:05:15;;;;;;;16.30;8.50;;;;;;;18.34;66.23;101136.84;5011793;28;20061;-60
2020/12/17 04:07:41;;;;;;;18.00;8.73;;;;;;;18.22;67.60;101141.44;5011007;28;20068;-60
2020/12/17 04:10:06;;;;;;;15.77;8.73;;;;;;;18.24;68.60;101133.94;5010274;28;20045;-62
2020/12/17 04:12:32;;;;;;;21.23;9.50;;;;;;;18.14;68.48;101137.25;5026852;28;20346;-61
2020/12/17 04:14:57;;;;;;;15.63;8.20;;;;;;;17.92;77.43;101146.78;5011132;28;20691;-61
2020/12/17 04:17:23;;;;;;;18.53;8.90;;;;;;;18.05;70.31;101137.59;5011704;28;20049;-61
2020/12/17 04:19:48;;;;;;;21.30;9.43;;;;;;;18.00;76.63;101139.38;5010954;28;20524;-61
2020/12/17 04:22:16;;;;;;;15.37;9.13;;;;;;;18.17;74.64;101148.41;5011331;28;20485;-60
2020/12/17 04:24:46;;;;;;;18.77;8.93;;;;;;;17.93;76.18;101131.38;5011234;28;20038;-61
2020/12/17 04:27:13;;;;;;;17.15;8.98;;;;;;;18.33;73.16;101144.13;5011545;28;20070;-61
2020/12/17 04:29:38;;;;;;;20.17;8.65;;;;;;;17.24;85.83;101146.28;5026396;28;20069;-60
2020/12/17 04:32:04;;;;;;;19.97;9.93;;;;;;;17.55;82.20;101130.81;5010606;28;20135;-61
2020/12/17 04:34:29;;;;;;;22.93;10.10;;;;;;;17.71;77.61;101133.84;5011478;28;20116;-63
2020/12/17 04:36:55;;;;;;;17.48;10.18;;;;;;;18.54;71.98;101149.94;5010648;28;20436;-61
2020/12/17 04:39:21;;;;;;;17.60;9.20;;;;;;;18.32;77.56;101149.78;5026067;28;20548;-61
2020/12/17 04:41:47;;;;;;;20.75;10.38;;;;;;;18.29;74.30;101145.66;5010704;28;20271;-60
2020/12/17 04:44:15;;;;;;;19.23;9.80;;;;;;;18.45;77.00;101165.78;5014270;28;20034;-61
2020/12/17 04:46:42;;;;;;;19.60;10.27;;;;;;;18.14;79.69;101162.41;5015022;28;20050;-59
2020/12/17 04:49:10;;;;;;;21.90;11.68;;;;;;;18.37;75.57;101162.63;5029973;28;20123;-62
2020/12/17 04:51:36;;;;;;;35.63;14.18;;;;;;;21.77;52.25;101160.03;5014725;28;20050;-61
2020/12/17 04:54:02;;;;;;;32.67;15.95;;;;;;;20.45;56.96;101167.56;5029378;28;20997;-61
2020/12/17 04:56:37;;;;;;;31.27;16.50;;;;;;;20.12;59.27;101156.56;5014976;28;20069;-61
2020/12/17 04:59:02;;;;;;;23.37;13.73;;;;;;;19.47;64.04;101159.69;5014226;28;20049;-60
2020/12/17 05:01:32;;;;;;;19.27;11.07;;;;;;;19.67;63.37;101176.53;5014842;28;20628;-59
2020/12/17 05:03:58;;;;;;;19.75;11.32;;;;;;;19.94;61.86;101176.69;5012678;28;20053;-61
2020/12/17 05:06:25;;;;;;;20.75;11.45;;;;;;;20.47;59.02;101182.50;5014807;28;20060;-59
2020/12/17 05:08:52;;;;;;;21.00;11.80;;;;;;;19.49;63.72;101194.72;5014255;28;20073;-60
2020/12/17 05:11:19;;;;;;;19.50;11.30;;;;;;;20.35;59.17;101193.50;5015123;28;20354;-60
2020/12/17 05:13:45;;;;;;;20.75;11.63;;;;;;;20.48;58.30;101194.22;5013496;28;20275;-59
2020/12/17 05:16:10;;;;;;;21.85;11.88;;;;;;;19.72;62.71;101192.91;5029699;28;20041;-61
2020/12/17 05:18:37;;;;;;;21.88;11.30;;;;;;;19.97;61.22;101200.63;5029699;28;20037;-60
2020/12/17 05:21:03;;;;;;;19.90;12.10;;;;;;;20.08;60.14;101192.63;5014032;28;20068;-60
2020/12/17 05:23:30;;;;;;;22.90;13.00;;;;;;;20.51;58.20;101193.69;5014511;28;20049;-58
2020/12/17 05:25:56;;;;;;;23.52;13.30;;;;;;;21.00;56.45;101194.78;5013856;28;20260;-60
2020/12/17 05:28:26;;;;;;;23.27;13.50;;;;;;;20.17;58.81;101207.38;5014926;28;20114;-60
2020/12/17 05:30:51;;;;;;;21.67;13.40;;;;;;;19.83;61.24;101204.72;5013792;28;20450;-60
2020/12/17 05:33:16;;;;;;;21.17;13.20;;;;;;;20.08;59.26;101200.75;5014460;28;20267;-59
2020/12/17 05:35:42;;;;;;;25.30;13.97;;;;;;;19.75;61.67;101205.97;5015115;28;20539;-60
2020/12/17 05:38:10;;;;;;;24.23;14.32;;;;;;;20.14;58.45;101202.47;5014458;28;20038;-60
2020/12/17 05:40:39;;;;;;;25.73;14.25;;;;;;;19.69;62.05;101220.53;5014496;28;20099;-61
2020/12/17 05:43:06;;;;;;;23.97;14.30;;;;;;;19.83;61.65;101221.00;5013432;28;20200;-61
2020/12/17 05:45:32;;;;;;;22.80;14.27;;;;;;;19.85;60.92;101238.69;5029266;28;20739;-60
2020/12/17 05:48:20;;;;;;;24.42;14.68;;;;;;;19.60;62.45;101234.50;5013371;28;20390;-60
2020/12/17 05:50:49;;;;;;;24.95;15.57;;;;;;;19.56;62.37;101241.47;5029102;28;20050;-60
2020/12/17 05:53:16;;;;;;;24.20;15.45;;;;;;;19.56;62.47;101241.47;5013586;28;20053;-61
2020/12/17 05:55:42;;;;;;;26.20;14.50;;;;;;;19.68;60.96;101252.25;5014015;28;20179;-60
2020/12/17 05:58:10;;;;;;;24.70;14.57;;;;;;;19.32;62.27;101257.91;5027930;28;20041;-61
2020/12/17 06:00:35;;;;;;;27.47;15.77;;;;;;;19.28;62.95;101240.47;5013747;28;20076;-60
2020/12/17 06:03:01;;;;;;;26.35;15.82;;;;;;;20.09;59.53;101252.09;5013211;28;20271;-60
2020/12/17 06:05:27;;;;;;;25.63;15.57;;;;;;;19.23;62.93;101269.38;5013552;28;20397;-60
2020/12/17 06:07:58;;;;;;;24.55;14.43;;;;;;;19.52;61.70;101272.88;5013119;28;20104;-60
2020/12/17 06:10:28;;;;;;;29.30;17.13;;;;;;;19.05;64.01;101298.34;5013488;28;20052;-60
2020/12/17 06:12:56;;;;;;;28.00;16.77;;;;;;;19.81;60.44;101289.09;5012903;28;20393;-60
2020/12/17 06:15:24;;;;;;;28.08;16.00;;;;;;;19.74;59.46;101288.44;5013729;28;20034;-60
2020/12/17 06:17:52;;;;;;;28.17;16.15;;;;;;;19.66;60.05;101302.41;5012637;28;20116;-55
2020/12/17 06:20:20;;;;;;;25.80;16.25;;;;;;;19.53;60.70;101309.78;5013346;28;20114;-60
2020/12/17 06:22:54;;;;;;;33.50;17.80;;;;;;;19.87;58.48;101279.13;5013333;28;20064;-58
2020/12/17 06:25:20;;;;;;;31.45;17.77;;;;;;;20.17;56.33;101292.38;5011599;28;20439;-60
2020/12/17 06:27:48;;;;;;;32.67;18.52;;;;;;;19.71;59.40;101300.59;5012950;28;20052;-60
2020/12/17 06:30:20;;;;;;;34.57;18.27;;;;;;;19.62;59.35;101313.75;5012610;28;20034;-62
2020/12/17 06:32:47;;;;;;;32.65;18.42;;;;;;;19.52;60.72;101299.19;5026268;28;20370;-59
2020/12/17 06:35:28;;;;;;;37.22;18.77;;;;;;;20.09;57.17;101313.72;5033047;28;20041;-59
2020/12/17 06:37:57;;;;;;;32.75;18.88;;;;;;;21.13;52.18;101305.03;5024001;28;20034;-59
2020/12/17 06:40:27;;;;;;;31.58;18.73;;;;;;;20.85;53.16;101315.06;5024223;28;20125;-60
2020/12/17 06:42:52;;;;;;;36.75;18.92;;;;;;;20.48;54.71;101330.03;5031597;28;20037;-52
2020/12/17 06:45:32;;;;;;;36.92;19.25;;;;;;;19.89;57.83;101344.84;5030861;28;20033;-60
2020/12/17 06:47:59;;;;;;;36.03;19.80;;;;;;;19.67;59.05;101339.34;5029288;28;20034;-60
2020/12/17 06:50:30;;;;;;;40.08;20.75;;;;;;;19.02;62.53;101345.72;5038705;28;20045;-59
2020/12/17 06:53:08;;;;;;;46.03;20.97;;;;;;;19.54;59.75;101354.84;5028899;28;20042;-60
2020/12/17 06:55:51;;;;;;;39.40;21.05;;;;;;;18.96;62.55;101353.94;5030870;28;20267;-59
2020/12/17 06:58:21;;;;;;;44.72;22.77;;;;;;;19.29;60.93;101349.78;5030317;28;20099;-60
2020/12/17 07:00:48;;;;;;;41.47;22.45;;;;;;;19.22;61.07;101355.31;5029843;28;20061;-58
2020/12/17 07:03:40;;;;;;;45.77;22.90;;;;;;;19.29;60.93;101364.13;5029909;28;20420;-59
2020/12/17 07:06:34;;;;;;;42.80;23.63;;;;;;;19.18;61.29;101373.16;5025081;28;20354;-59
2020/12/17 07:09:00;;;;;;;43.60;23.02;;;;;;;18.62;64.50;101360.00;5027790;28;20534;-60
2020/12/17 07:11:46;;;;;;;42.10;24.02;;;;;;;17.97;70.70;101364.41;5030528;28;20116;-60
2020/12/17 07:14:33;;;;;;;41.97;23.45;;;;;;;18.64;65.85;101360.59;5030206;28;20064;-60
2020/12/17 07:17:01;;;;;;;47.78;24.20;;;;;;;18.40;67.85;101373.31;5030504;28;20037;-59
2020/12/17 07:19:50;;;;;;;42.88;24.10;;;;;;;17.26;75.65;101373.09;5031707;28;20041;-60
2020/12/17 07:22:17;;;;;;;70.97;25.30;;;;;;;17.88;72.82;101375.56;5029747;28;20548;-60
2020/12/17 07:24:48;;;;;;;44.72;24.15;;;;;;;17.18;77.41;101390.44;5031864;28;20095;-60
2020/12/17 07:27:25;;;;;;;44.50;23.90;;;;;;;17.52;75.57;101396.25;5029690;28;20030;-59
2020/12/17 07:30:02;;;;;;;47.22;24.65;;;;;;;17.42;75.88;101414.91;5032026;28;20037;-60
2020/12/17 07:32:43;;;;;;;44.05;25.15;;;;;;;16.79;80.63;101414.94;5029296;28;20038;-59
2020/12/17 07:35:09;;;;;;;48.63;25.63;;;;;;;17.97;72.63;101415.81;5030702;28;20044;-60
2020/12/17 07:37:57;;;;;;;46.77;25.17;;;;;;;17.95;72.77;101417.94;5031455;28;20271;-59
2020/12/17 07:40:41;;;;;;;46.10;25.83;;;;;;;17.81;73.66;101420.00;5031365;28;20060;-60
2020/12/17 07:43:08;;;;;;;46.90;25.37;;;;;;;17.16;77.32;101414.97;5022513;28;20061;-60
2020/12/17 07:45:46;;;;;;;48.83;27.33;;;;;;;17.69;75.51;101426.22;5005903;28;20434;-59
2020/12/17 07:48:36;;;;;;;55.78;29.80;;;;;;;17.46;75.44;101430.44;5022694;28;20863;-58
2020/12/17 07:51:04;;;;;;;53.77;28.73;;;;;;;17.12;77.34;101434.59;5029420;28;20080;-59
2020/12/17 07:53:30;;;;;;;51.77;27.20;;;;;;;17.58;75.55;101424.25;5030257;28;20281;-60
2020/12/17 07:55:55;;;;;;;48.03;26.25;;;;;;;17.15;77.47;101436.84;5030698;28;20251;-59
2020/12/17 07:58:21;;;;;;;44.40;24.60;;;;;;;17.27;77.46;101445.84;5029141;28;20480;-60
2020/12/17 08:00:47;;;;;;;47.58;26.52;;;;;;;16.89;79.86;101438.75;5029593;28;20061;-60
2020/12/17 08:03:12;;;;;;;45.07;25.53;;;;;;;16.65;82.24;101452.06;5029610;28;20041;-62
2020/12/17 08:05:38;;;;;;;43.58;23.80;;;;;;;16.50;85.13;101449.69;5030812;28;20437;-58
2020/12/17 08:08:04;;;;;;;41.25;22.88;;;;;;;17.58;75.86;101460.25;5031448;28;20065;-60
2020/12/17 08:10:29;;;;;;;43.80;24.43;;;;;;;17.39;75.37;101464.03;5028147;28;20509;-58
2020/12/17 08:12:58;;;;;;;47.45;25.80;;;;;;;17.64;72.78;101453.09;5011408;28;20405;-59
2020/12/17 08:15:24;;;;;;;47.90;25.80;;;;;;;17.13;77.39;101463.28;5023022;28;20596;-60
2020/12/17 08:17:56;;;;;;;44.70;25.73;;;;;;;16.89;80.16;101463.06;5033472;28;20069;-58
2020/12/17 08:20:22;;;;;;;39.65;23.63;;;;;;;17.06;78.43;101464.16;5026982;28;20040;-59
2020/12/17 08:22:48;;;;;;;39.13;22.50;;;;;;;16.84;79.23;101476.38;5030678;28;20042;-59
2020/12/17 08:25:16;;;;;;;47.88;22.73;;;;;;;16.58;82.31;101462.06;5021282;28;20088;-58
2020/12/17 08:27:41;;;;;;;48.30;26.50;;;;;;;17.17;77.80;101456.38;5035475;28;20076;-60
2020/12/17 08:30:07;;;;;;;41.40;25.10;;;;;;;16.69;81.06;101479.44;5033455;28;20409;-61
2020/12/17 08:32:33;;;;;;;48.07;25.33;;;;;;;17.01;77.33;101476.69;5021026;28;20270;-59
2020/12/17 08:34:59;;;;;;;39.22;23.80;;;;;;;17.05;77.87;101461.69;5015812;28;20062;-60
2020/12/17 08:37:25;;;;;;;41.42;23.52;;;;;;;17.04;77.39;101465.44;5014118;28;20034;-60
2020/12/17 08:40:04;;;;;;;36.60;21.13;;;;;;;16.92;78.57;101476.13;5015035;28;20038;-60
2020/12/17 08:42:35;;;;;;;49.47;25.00;;;;;;;17.29;75.67;101473.47;5031072;28;20125;-61
2020/12/17 08:45:10;;;;;;;44.05;24.15;;;;;;;17.62;74.15;101488.50;5027082;28;20049;-54
2020/12/17 08:47:44;;;;;;;45.00;27.35;;;;;;;17.66;73.45;101491.59;5014106;28;20141;-60
2020/12/17 08:50:11;;;;;;;52.38;28.83;;;;;;;17.92;70.33;101482.28;5013283;28;20034;-58
2020/12/17 08:52:37;;;;;;;50.35;28.13;;;;;;;17.29;75.27;101494.28;5012918;28;20042;-60
2020/12/17 08:55:09;;;;;;;41.67;22.27;;;;;;;17.63;71.98;101495.56;5014066;28;20053;-58
2020/12/17 08:57:35;;;;;;;40.90;22.67;;;;;;;17.51;72.57;101489.25;5013917;28;20034;-59
2020/12/17 09:00:03;;;;;;;41.13;23.25;;;;;;;17.51;71.73;101502.75;5012603;28;20278;-59
2020/12/17 09:02:29;;;;;;;39.97;24.23;;;;;;;17.74;70.92;101514.75;5013079;28;20482;-59
2020/12/17 09:04:55;;;;;;;;;;;;;;;17.46;72.41;101516.97;5033199;28;20040;-60
2020/12/17 09:07:28;;;;;;;36.30;21.57;;;;;;;17.47;72.28;101515.09;5023903;28;20234;-60
2020/12/17 09:10:09;;;;;;;39.30;22.00;;;;;;;17.62;71.92;101525.50;5021414;28;20030;-59
2020/12/17 09:12:35;;;;;;;37.80;22.98;;;;;;;17.45;75.16;101526.13;5031761;28;20508;-59
2020/12/17 09:15:13;;;;;;;39.15;22.05;;;;;;;17.24;74.23;101535.50;5016635;28;20049;-60
2020/12/17 09:17:40;;;;;;;36.10;19.73;;;;;;;16.95;75.60;101532.41;5034155;28;20420;-60
2020/12/17 09:20:19;;;;;;;;;;;;;;;16.95;76.18;101536.97;5034157;28;20091;-58
2020/12/17 09:22:45;;;;;;;32.35;18.55;;;;;;;17.17;74.76;101540.16;5033775;28;19913;-58
2020/12/17 09:25:13;;;;;;;30.95;16.08;;;;;;;16.85;76.02;101527.50;5033412;28;20064;-59
2020/12/17 09:27:40;;;;;;;31.97;17.93;;;;;;;16.94;75.96;101533.47;5033843;28;20116;-59
2020/12/17 09:30:10;;;;;;;29.27;17.93;;;;;;;17.46;73.89;101541.31;5024732;28;20290;-59
2020/12/17 09:32:52;;;;;;;30.70;15.63;;;;;;;17.28;72.72;101558.31;5014081;28;20401;-60
2020/12/17 09:35:22;;;;;;;21.83;13.23;;;;;;;17.56;73.72;101542.66;5013567;28;20279;-60
2020/12/17 09:38:01;;;;;;;19.77;9.70;;;;;;;17.77;67.58;101544.09;5028311;28;20303;-61
2020/12/17 09:40:27;;;;;;;17.13;9.40;;;;;;;17.66;70.51;101552.94;5014669;28;20275;-60
2020/12/17 09:43:13;;;;;;;21.00;10.15;;;;;;;17.98;66.39;101582.53;5015409;28;20248;-60
2020/12/17 09:45:48;;;;;;;16.40;7.03;;;;;;;17.51;68.76;101551.44;5014133;28;20033;-61
2020/12/17 09:48:21;;;;;;;17.37;6.87;;;;;;;17.22;71.11;101563.81;5015293;28;20285;-60
2020/12/17 09:51:06;;;;;;;15.50;8.10;;;;;;;17.26;71.78;101559.59;5014907;28;20294;-61
2020/12/17 09:53:45;;;;;;;14.83;7.70;;;;;;;17.23;72.71;101585.19;5013194;28;20272;-61
2020/12/17 09:56:13;;;;;;;14.20;8.07;;;;;;;17.05;74.77;101580.56;5014376;28;20263;-60
2020/12/17 09:58:43;;;;;;;15.47;7.97;;;;;;;16.72;74.64;101598.66;5013808;28;20297;-60
2020/12/17 10:01:09;;;;;;;16.20;7.30;;;;;;;16.37;78.85;101582.84;5012401;28;20279;-59
2020/12/17 10:03:34;;;;;;;14.03;8.13;;;;;;;16.28;79.08;101576.91;5028403;28;20343;-59
2020/12/17 10:06:00;;;;;;;17.87;7.73;;;;;;;16.24;79.97;101574.84;5013767;28;20038;-61
2020/12/17 10:08:25;;;;;;;17.52;7.57;;;;;;;16.75;75.62;101600.91;5005300;28;20045;-60
2020/12/17 10:10:51;;;;;;;15.97;7.97;;;;;;;16.36;78.05;101602.81;5031223;28;20041;-60
2020/12/17 10:13:16;;;;;;;17.27;8.93;;;;;;;16.04;81.77;101627.03;5032609;28;20082;-61
2020/12/17 10:15:42;;;;;;;20.33;7.40;;;;;;;16.41;79.45;101605.69;5032998;28;20025;-60
2020/12/17 10:18:08;;;;;;;12.57;7.83;;;;;;;16.71;77.23;101612.38;5012668;28;20041;-60
2020/12/17 10:20:34;;;;;;;17.42;6.70;;;;;;;16.20;78.38;101596.03;5032480;28;20033;-60
2020/12/17 10:22:59;;;;;;;16.07;7.37;;;;;;;16.62;78.42;101595.63;5031912;28;20079;-60
2020/12/17 10:25:24;;;;;;;17.63;7.87;;;;;;;16.77;75.20;101606.94;5031811;28;20025;-60
2020/12/17 10:27:52;;;;;;;15.03;7.03;;;;;;;17.91;68.37;101613.22;5032829;28;20042;-60
2020/12/17 10:30:17;;;;;;;14.60;6.63;;;;;;;18.47;67.66;101601.50;5032092;28;20037;-60
2020/12/17 10:32:43;;;;;;;12.80;5.80;;;;;;;19.74;59.09;101603.19;5031592;28;20596;-60
2020/12/17 10:35:09;;;;;;;13.00;6.30;;;;;;;20.33;55.47;101607.69;5030549;28;20092;-60
2020/12/17 10:37:39;;;;;;;12.13;5.33;;;;;;;20.88;53.35;101627.16;5031562;28;20394;-59
2020/12/17 10:40:04;;;;;;;10.27;4.80;;;;;;;20.62;52.17;101618.53;5028474;28;20289;-58
2020/12/17 10:42:30;;;;;;;6.83;4.33;;;;;;;21.54;47.89;101618.38;5031537;28;20262;-59
2020/12/17 10:44:55;;;;;;;10.52;4.32;;;;;;;20.84;51.13;101617.84;5030270;28;20039;-59
2020/12/17 10:47:21;;;;;;;14.45;5.13;;;;;;;21.38;50.55;101624.66;5025631;28;20209;-59
2020/12/17 10:49:47;;;;;;;11.05;4.30;;;;;;;20.14;53.22;101617.88;5019729;28;20037;-60
2020/12/17 10:52:12;;;;;;;12.35;5.20;;;;;;;21.48;48.79;101619.38;5020223;28;20505;-60
2020/12/17 10:54:38;;;;;;;13.88;5.05;;;;;;;19.38;54.16;101637.69;5022715;28;20087;-58
2020/12/17 10:57:03;;;;;;;13.47;4.80;;;;;;;20.81;52.41;101632.72;5024731;28;20030;-59
2020/12/17 10:59:29;;;;;;;10.27;5.47;;;;;;;21.87;49.21;101630.28;5029900;28;20601;-60
2020/12/17 11:01:58;;;;;;;12.87;5.83;;;;;;;20.93;49.33;101632.66;5030315;28;20313;-60
2020/12/17 11:04:24;;;;;;;12.37;5.20;;;;;;;20.74;49.94;101640.19;5031047;28;20267;-60
2020/12/17 11:06:50;;;;;;;10.88;5.38;;;;;;;20.32;54.12;101627.75;5030969;28;20634;-60
2020/12/17 11:09:16;;;;;;;11.77;4.65;;;;;;;19.90;54.22;101639.63;5030416;28;20473;-59
2020/12/17 11:11:42;;;;;;;12.35;5.63;;;;;;;19.00;58.98;101647.84;5031413;28;20152;-59
2020/12/17 11:14:07;;;;;;;13.60;6.70;;;;;;;18.62;60.83;101647.13;5028269;28;20109;-60
2020/12/17 11:16:33;;;;;;;15.67;5.73;;;;;;;18.34;66.25;101651.25;5020803;28;20033;-59
2020/12/17 11:19:00;;;;;;;12.43;5.37;;;;;;;18.20;65.42;101651.41;5020829;28;20057;-60